createdAt,value
2018-04-27T00:00:16.229Z,86.27
2018-04-27T00:01:16.203Z,86.18
2018-04-27T00:02:16.177Z,85.99
2018-04-27T00:03:16.157Z,85.89
2018-04-27T00:04:16.130Z,85.80
2018-04-27T00:05:16.107Z,85.60
2018-04-27T00:06:16.089Z,85.60
2018-04-27T00:07:16.080Z,85.80
2018-04-27T00:08:16.036Z,86.18
2018-04-27T00:09:16.022Z,85.80
2018-04-27T00:10:15.991Z,85.89
2018-04-27T00:11:15.965Z,85.32
2018-04-27T00:12:15.951Z,85.60
2018-04-27T00:13:15.923Z,85.22
2018-04-27T00:14:15.904Z,85.60
2018-04-27T00:15:15.876Z,85.60
2018-04-27T00:16:15.852Z,85.51
2018-04-27T00:17:15.830Z,85.60
2018-04-27T00:18:15.811Z,85.89
2018-04-27T00:19:15.811Z,85.70
2018-04-27T00:20:15.758Z,86.08
2018-04-27T00:21:15.782Z,85.80
2018-04-27T00:22:15.716Z,86.08
2018-04-27T00:23:15.701Z,86.08
2018-04-27T00:24:15.668Z,86.08
2018-04-27T00:25:15.643Z,85.80
2018-04-27T00:26:15.624Z,85.60
2018-04-27T00:27:15.596Z,85.60
2018-04-27T00:28:15.576Z,85.99
2018-04-27T00:29:15.551Z,86.08
2018-04-27T00:30:15.554Z,85.60
2018-04-27T00:31:15.516Z,85.60
2018-04-27T00:32:15.488Z,85.89
2018-04-27T00:33:15.467Z,85.70
2018-04-27T00:34:15.517Z,86.08
2018-04-27T00:35:15.413Z,86.46
2018-04-27T00:36:15.394Z,86.08
2018-04-27T00:37:15.395Z,85.89
2018-04-27T00:38:15.350Z,86.18
2018-04-27T00:39:15.321Z,85.80
2018-04-27T00:40:15.307Z,85.70
2018-04-27T00:41:15.277Z,85.80
2018-04-27T00:42:15.251Z,86.18
2018-04-27T00:43:15.231Z,86.18
2018-04-27T00:44:15.209Z,85.99
2018-04-27T00:45:15.200Z,86.08
2018-04-27T00:46:15.163Z,85.89
2018-04-27T00:47:15.138Z,86.08
2018-04-27T00:48:15.119Z,85.60
2018-04-27T00:49:15.098Z,85.89
2018-04-27T00:50:15.090Z,86.27
2018-04-27T00:51:15.046Z,86.18
2018-04-27T00:52:15.022Z,86.65
2018-04-27T00:53:14.999Z,86.90
2018-04-27T00:54:14.976Z,86.65
2018-04-27T00:55:14.964Z,86.46
2018-04-27T00:56:14.924Z,86.75
2018-04-27T00:57:14.904Z,86.55
2018-04-27T00:58:14.882Z,86.70
2018-04-27T00:59:14.908Z,86.70
2018-04-27T01:00:14.842Z,86.90
2018-04-27T01:01:14.810Z,87.08
2018-04-27T01:02:14.801Z,86.90
2018-04-27T01:03:14.766Z,87.13
2018-04-27T01:04:14.751Z,86.46
2018-04-27T01:05:14.720Z,86.36
2018-04-27T01:06:14.695Z,86.94
2018-04-27T01:07:14.690Z,86.08
2018-04-27T01:08:14.654Z,85.99
2018-04-27T01:09:14.631Z,85.70
2018-04-27T01:10:14.603Z,84.94
2018-04-27T01:11:14.579Z,85.51
2018-04-27T01:12:14.559Z,85.60
2018-04-27T01:13:14.538Z,85.70
2018-04-27T01:14:14.512Z,85.60
2018-04-27T01:15:14.487Z,85.60
2018-04-27T01:16:14.482Z,85.51
2018-04-27T01:17:14.460Z,85.41
2018-04-27T01:18:14.432Z,84.84
2018-04-27T01:19:14.409Z,84.36
2018-04-27T01:20:14.398Z,84.17
2018-04-27T01:21:14.347Z,84.65
2018-04-27T01:22:14.326Z,84.46
2018-04-27T01:23:14.301Z,84.46
2018-04-27T01:24:14.280Z,85.13
2018-04-27T01:25:29.142Z,86.27
2018-04-27T01:26:14.247Z,85.80
2018-04-27T01:27:14.215Z,85.89
2018-04-27T01:28:14.188Z,85.80
2018-04-27T01:29:14.164Z,85.60
2018-04-27T01:30:14.139Z,86.08
2018-04-27T01:31:14.118Z,85.60
2018-04-27T01:32:14.093Z,85.32
2018-04-27T01:33:14.066Z,85.32
2018-04-27T01:34:14.047Z,85.41
2018-04-27T01:35:14.022Z,85.22
2018-04-27T01:36:14.003Z,85.60
2018-04-27T01:37:14.018Z,85.41
2018-04-27T01:38:13.953Z,85.13
2018-04-27T01:39:13.975Z,84.65
2018-04-27T01:40:13.907Z,83.98
2018-04-27T01:41:13.881Z,84.08
2018-04-27T01:42:13.863Z,83.94
2018-04-27T01:43:13.836Z,84.75
2018-04-27T01:44:13.819Z,85.08
2018-04-27T01:45:13.790Z,85.85
2018-04-27T01:46:13.769Z,85.56
2018-04-27T01:47:13.747Z,85.28
2018-04-27T01:48:13.724Z,85.18
2018-04-27T01:49:13.697Z,85.08
2018-04-27T01:50:13.680Z,85.28
2018-04-27T01:51:13.652Z,84.99
2018-04-27T01:52:13.629Z,85.37
2018-04-27T01:53:13.605Z,85.47
2018-04-27T01:54:13.586Z,85.85
2018-04-27T01:55:13.564Z,85.18
2018-04-27T01:56:13.535Z,85.56
2018-04-27T01:57:13.511Z,85.18
2018-04-27T01:58:13.486Z,85.28
2018-04-27T01:59:13.471Z,85.47
2018-04-27T02:00:13.448Z,85.18
2018-04-27T02:01:13.417Z,85.18
2018-04-27T02:02:13.404Z,85.47
2018-04-27T02:03:13.377Z,85.18
2018-04-27T02:04:13.351Z,85.28
2018-04-27T02:05:13.325Z,85.28
2018-04-27T02:06:13.300Z,85.18
2018-04-27T02:07:13.293Z,85.37
2018-04-27T02:08:13.263Z,85.47
2018-04-27T02:09:13.233Z,85.52
2018-04-27T02:10:13.210Z,85.04
2018-04-27T02:11:13.186Z,85.24
2018-04-27T02:12:13.166Z,85.80
2018-04-27T02:13:13.137Z,85.52
2018-04-27T02:14:13.119Z,85.71
2018-04-27T02:15:13.109Z,85.33
2018-04-27T02:16:13.068Z,85.80
2018-04-27T02:17:13.048Z,85.33
2018-04-27T02:18:13.078Z,85.99
2018-04-27T02:19:13.001Z,86.18
2018-04-27T02:20:13.087Z,85.71
2018-04-27T02:21:12.951Z,85.90
2018-04-27T02:22:12.930Z,85.52
2018-04-27T02:23:12.911Z,85.52
2018-04-27T02:24:12.885Z,86.28
2018-04-27T02:25:12.859Z,86.94
2018-04-27T02:26:12.834Z,87.52
2018-04-27T02:27:12.816Z,86.38
2018-04-27T02:28:12.791Z,86.57
2018-04-27T02:29:12.759Z,86.57
2018-04-27T02:30:12.741Z,86.57
2018-04-27T02:31:12.718Z,86.66
2018-04-27T02:32:12.700Z,86.85
2018-04-27T02:33:12.676Z,86.57
2018-04-27T02:34:12.655Z,87.32
2018-04-27T02:35:12.622Z,87.90
2018-04-27T02:36:12.604Z,88.28
2018-04-27T02:37:12.573Z,88.18
2018-04-27T02:38:12.552Z,87.99
2018-04-27T02:39:12.537Z,86.57
2018-04-27T02:40:12.534Z,86.57
2018-04-27T02:41:12.591Z,85.90
2018-04-27T02:42:12.474Z,85.52
2018-04-27T02:43:12.430Z,85.71
2018-04-27T02:44:12.413Z,85.04
2018-04-27T02:45:12.384Z,85.52
2018-04-27T02:46:12.359Z,85.42
2018-04-27T02:47:12.339Z,85.80
2018-04-27T02:48:12.313Z,86.09
2018-04-27T02:49:12.291Z,85.99
2018-04-27T02:50:12.269Z,85.99
2018-04-27T02:51:12.245Z,86.28
2018-04-27T02:52:12.222Z,87.42
2018-04-27T02:53:12.197Z,87.42
2018-04-27T02:54:12.176Z,86.66
2018-04-27T02:55:12.179Z,87.80
2018-04-27T02:56:12.140Z,88.28
2018-04-27T02:57:12.099Z,88.75
2018-04-27T02:58:12.076Z,88.18
2018-04-27T02:59:12.058Z,88.56
2018-04-27T03:00:12.030Z,87.52
2018-04-27T03:01:12.012Z,87.90
2018-04-27T03:02:11.984Z,88.46
2018-04-27T03:03:11.958Z,87.42
2018-04-27T03:04:11.938Z,87.23
2018-04-27T03:05:11.914Z,87.42
2018-04-27T03:06:11.893Z,87.42
2018-04-27T03:07:11.863Z,87.42
2018-04-27T03:08:11.853Z,87.80
2018-04-27T03:09:11.815Z,86.76
2018-04-27T03:10:11.794Z,86.66
2018-04-27T03:11:11.769Z,85.90
2018-04-27T03:12:11.750Z,85.90
2018-04-27T03:13:11.719Z,85.99
2018-04-27T03:14:11.698Z,85.52
2018-04-27T03:15:11.677Z,86.09
2018-04-27T03:16:11.670Z,85.80
2018-04-27T03:17:11.629Z,86.18
2018-04-27T03:18:11.604Z,85.99
2018-04-27T03:19:11.579Z,85.99
2018-04-27T03:20:11.562Z,85.61
2018-04-27T03:21:11.535Z,85.61
2018-04-27T03:22:11.518Z,85.80
2018-04-27T03:23:11.495Z,85.90
2018-04-27T03:24:11.460Z,85.33
2018-04-27T03:25:11.437Z,85.47
2018-04-27T03:26:11.426Z,85.90
2018-04-27T03:27:11.395Z,86.47
2018-04-27T03:28:11.413Z,86.71
2018-04-27T03:29:11.341Z,87.47
2018-04-27T03:30:11.383Z,87.90
2018-04-27T03:31:11.293Z,88.13
2018-04-27T03:32:11.285Z,87.28
2018-04-27T03:33:11.252Z,86.61
2018-04-27T03:34:11.312Z,87.38
2018-04-27T03:35:11.246Z,87.57
2018-04-27T03:36:11.178Z,87.95
2018-04-27T03:37:11.152Z,88.71
2018-04-27T03:38:11.129Z,88.52
2018-04-27T03:39:11.111Z,88.52
2018-04-27T03:40:11.098Z,88.52
2018-04-27T03:41:11.056Z,88.18
2018-04-27T03:42:11.033Z,87.32
2018-04-27T03:43:11.009Z,87.28
2018-04-27T03:44:10.984Z,87.85
2018-04-27T03:45:10.961Z,87.80
2018-04-27T03:46:10.936Z,87.95
2018-04-27T03:47:10.922Z,86.43
2018-04-27T03:48:10.889Z,86.43
2018-04-27T03:49:10.870Z,86.28
2018-04-27T03:50:10.844Z,85.76
2018-04-27T03:51:10.822Z,86.14
2018-04-27T03:52:10.794Z,85.76
2018-04-27T03:53:10.771Z,85.57
2018-04-27T03:54:10.751Z,85.66
2018-04-27T03:55:10.727Z,85.47
2018-04-27T03:56:10.697Z,85.00
2018-04-27T03:57:10.689Z,85.86
2018-04-27T03:58:10.656Z,85.57
2018-04-27T03:59:10.625Z,85.47
2018-04-27T04:00:10.621Z,85.76
2018-04-27T04:01:10.708Z,85.76
2018-04-27T04:02:10.582Z,85.57
2018-04-27T04:03:10.549Z,85.47
2018-04-27T04:04:10.508Z,85.38
2018-04-27T04:05:10.489Z,85.95
2018-04-27T04:06:10.460Z,85.86
2018-04-27T04:07:10.435Z,85.95
2018-04-27T04:08:10.428Z,86.05
2018-04-27T04:09:10.390Z,86.14
2018-04-27T04:10:10.364Z,85.76
2018-04-27T04:11:10.386Z,85.76
2018-04-27T04:12:10.330Z,86.24
2018-04-27T04:13:10.325Z,86.43
2018-04-27T04:14:10.290Z,86.05
2018-04-27T04:15:10.257Z,85.66
2018-04-27T04:16:10.221Z,84.72
2018-04-27T04:17:10.198Z,85.10
2018-04-27T04:18:10.177Z,84.91
2018-04-27T04:19:10.148Z,85.38
2018-04-27T04:20:10.125Z,84.72
2018-04-27T04:21:10.100Z,84.72
2018-04-27T04:22:10.074Z,85.28
2018-04-27T04:23:10.057Z,85.00
2018-04-27T04:24:10.035Z,85.28
2018-04-27T04:25:10.238Z,84.62
2018-04-27T04:26:12.687Z,84.91
2018-04-27T04:27:09.957Z,84.43
2018-04-27T04:28:09.940Z,84.62
2018-04-27T04:29:09.907Z,85.05
2018-04-27T04:30:09.883Z,85.15
2018-04-27T04:31:09.863Z,85.05
2018-04-27T04:32:09.836Z,85.05
2018-04-27T04:33:09.813Z,85.91
2018-04-27T04:34:09.792Z,86.19
2018-04-27T04:35:09.773Z,86.47
2018-04-27T04:36:09.740Z,87.24
2018-04-27T04:37:09.717Z,87.71
2018-04-27T04:38:09.694Z,87.81
2018-04-27T04:39:09.667Z,87.90
2018-04-27T04:40:09.660Z,88.90
2018-04-27T04:41:09.623Z,88.57
2018-04-27T04:42:09.604Z,88.71
2018-04-27T04:43:09.573Z,88.90
2018-04-27T04:44:09.548Z,88.42
2018-04-27T04:45:09.578Z,88.61
2018-04-27T04:46:09.496Z,88.42
2018-04-27T04:47:09.477Z,88.23
2018-04-27T04:48:09.455Z,88.33
2018-04-27T04:49:09.429Z,88.04
2018-04-27T04:50:09.402Z,87.76
2018-04-27T04:51:09.416Z,86.80
2018-04-27T04:52:09.354Z,86.24
2018-04-27T04:53:09.331Z,86.33
2018-04-27T04:54:09.312Z,86.90
2018-04-27T04:55:09.305Z,86.71
2018-04-27T04:56:09.262Z,85.57
2018-04-27T04:57:09.237Z,85.76
2018-04-27T04:58:09.210Z,85.86
2018-04-27T04:59:09.193Z,85.76
2018-04-27T05:00:09.164Z,86.05
2018-04-27T05:01:09.141Z,85.66
2018-04-27T05:02:09.114Z,85.57
2018-04-27T05:03:09.091Z,86.05
2018-04-27T05:04:09.070Z,85.19
2018-04-27T05:05:09.051Z,85.38
2018-04-27T05:06:09.025Z,85.66
2018-04-27T05:07:09.014Z,85.95
2018-04-27T05:08:08.975Z,85.95
2018-04-27T05:09:08.959Z,85.76
2018-04-27T05:10:08.936Z,86.71
2018-04-27T05:11:08.901Z,86.57
2018-04-27T05:12:08.876Z,86.80
2018-04-27T05:13:08.854Z,86.80
2018-04-27T05:14:08.832Z,86.61
2018-04-27T05:15:08.809Z,86.29
2018-04-27T05:16:08.778Z,86.33
2018-04-27T05:17:08.755Z,86.19
2018-04-27T05:18:08.729Z,86.90
2018-04-27T05:19:08.713Z,86.52
2018-04-27T05:20:08.692Z,86.24
2018-04-27T05:21:08.673Z,86.24
2018-04-27T05:22:08.649Z,86.52
2018-04-27T05:23:08.614Z,86.61
2018-04-27T05:24:08.612Z,86.33
2018-04-27T05:25:08.577Z,86.24
2018-04-27T05:26:08.536Z,85.76
2018-04-27T05:27:11.182Z,85.76
2018-04-27T05:28:08.490Z,86.61
2018-04-27T05:29:08.507Z,86.61
2018-04-27T05:30:08.443Z,86.43
2018-04-27T05:31:08.417Z,85.95
2018-04-27T05:32:08.392Z,86.14
2018-04-27T05:33:08.373Z,86.14
2018-04-27T05:34:08.346Z,85.76
2018-04-27T05:35:08.326Z,85.57
2018-04-27T05:36:08.299Z,85.95
2018-04-27T05:37:08.277Z,85.76
2018-04-27T05:38:08.250Z,86.24
2018-04-27T05:39:08.225Z,85.95
2018-04-27T05:40:08.199Z,85.76
2018-04-27T05:41:08.175Z,85.66
2018-04-27T05:42:08.157Z,85.66
2018-04-27T05:43:08.131Z,86.24
2018-04-27T05:44:08.113Z,85.66
2018-04-27T05:45:08.087Z,86.33
2018-04-27T05:46:08.063Z,86.61
2018-04-27T05:47:08.037Z,86.61
2018-04-27T05:48:08.012Z,86.61
2018-04-27T05:49:07.990Z,86.80
2018-04-27T05:50:07.961Z,87.09
2018-04-27T05:51:07.930Z,86.80
2018-04-27T05:52:07.912Z,86.71
2018-04-27T05:53:07.898Z,86.52
2018-04-27T05:54:07.937Z,87.04
2018-04-27T05:55:07.845Z,86.76
2018-04-27T05:56:07.817Z,87.23
2018-04-27T05:57:07.790Z,86.85
2018-04-27T05:58:07.773Z,86.28
2018-04-27T05:59:07.744Z,85.99
2018-04-27T06:00:07.725Z,85.71
2018-04-27T06:01:07.696Z,85.80
2018-04-27T06:02:07.673Z,86.47
2018-04-27T06:03:07.648Z,86.09
2018-04-27T06:04:07.625Z,85.80
2018-04-27T06:05:07.608Z,85.99
2018-04-27T06:06:07.582Z,85.99
2018-04-27T06:07:07.617Z,86.18
2018-04-27T06:08:07.527Z,85.66
2018-04-27T06:09:07.522Z,85.24
2018-04-27T06:10:07.550Z,86.32
2018-04-27T06:11:07.459Z,85.66
2018-04-27T06:12:07.444Z,85.47
2018-04-27T06:13:07.412Z,86.13
2018-04-27T06:14:07.387Z,85.28
2018-04-27T06:15:07.363Z,85.56
2018-04-27T06:16:07.410Z,86.04
2018-04-27T06:17:07.315Z,85.18
2018-04-27T06:18:07.293Z,85.08
2018-04-27T06:19:07.272Z,84.70
2018-04-27T06:20:07.252Z,84.42
2018-04-27T06:21:07.219Z,84.33
2018-04-27T06:22:07.194Z,83.56
2018-04-27T06:23:07.175Z,83.56
2018-04-27T06:24:07.174Z,83.09
2018-04-27T06:25:07.129Z,83.09
2018-04-27T06:26:07.104Z,82.99
2018-04-27T06:27:07.078Z,83.09
2018-04-27T06:28:07.053Z,82.99
2018-04-27T06:29:07.055Z,82.80
2018-04-27T06:30:07.006Z,82.61
2018-04-27T06:31:06.989Z,82.70
2018-04-27T06:32:06.978Z,82.70
2018-04-27T06:33:06.937Z,82.99
2018-04-27T06:34:06.916Z,82.75
2018-04-27T06:35:06.889Z,82.99
2018-04-27T06:36:06.865Z,83.22
2018-04-27T06:37:06.855Z,83.13
2018-04-27T06:38:06.815Z,83.61
2018-04-27T06:39:06.803Z,83.03
2018-04-27T06:40:06.773Z,82.08
2018-04-27T06:41:06.748Z,81.32
2018-04-27T06:42:06.742Z,80.94
2018-04-27T06:43:06.729Z,81.03
2018-04-27T06:44:06.686Z,81.23
2018-04-27T06:45:06.697Z,81.13
2018-04-27T06:46:06.627Z,80.65
2018-04-27T06:47:06.604Z,81.03
2018-04-27T06:48:06.586Z,81.51
2018-04-27T06:49:06.570Z,81.60
2018-04-27T06:50:06.534Z,81.60
2018-04-27T06:51:06.516Z,81.89
2018-04-27T06:52:06.489Z,81.70
2018-04-27T06:53:06.470Z,81.89
2018-04-27T06:54:06.450Z,81.60
2018-04-27T06:55:06.419Z,81.03
2018-04-27T06:56:06.411Z,81.03
2018-04-27T06:57:06.371Z,81.13
2018-04-27T06:58:09.234Z,80.75
2018-04-27T06:59:06.358Z,81.03
2018-04-27T07:00:06.303Z,80.94
2018-04-27T07:01:06.278Z,80.84
2018-04-27T07:02:06.255Z,81.13
2018-04-27T07:03:06.233Z,81.32
2018-04-27T07:04:06.209Z,81.32
2018-04-27T07:05:06.286Z,80.84
2018-04-27T07:06:06.174Z,80.08
2018-04-27T07:07:06.136Z,79.89
2018-04-27T07:08:06.117Z,78.94
2018-04-27T07:09:06.107Z,78.98
2018-04-27T07:10:06.066Z,79.03
2018-04-27T07:11:06.055Z,79.41
2018-04-27T07:12:06.021Z,79.13
2018-04-27T07:13:05.999Z,79.64
2018-04-27T07:14:05.974Z,78.88
2018-04-27T07:15:05.953Z,78.98
2018-04-27T07:16:05.928Z,79.07
2018-04-27T07:17:05.932Z,78.41
2018-04-27T07:18:05.897Z,78.03
2018-04-27T07:19:05.863Z,78.03
2018-04-27T07:20:05.836Z,77.93
2018-04-27T07:21:05.821Z,77.74
2018-04-27T07:22:05.822Z,77.55
2018-04-27T07:23:05.782Z,77.36
2018-04-27T07:24:05.784Z,77.17
2018-04-27T07:25:05.717Z,77.26
2018-04-27T07:26:05.699Z,76.98
2018-04-27T07:27:05.675Z,77.36
2018-04-27T07:28:05.648Z,77.64
2018-04-27T07:29:05.625Z,77.97
2018-04-27T07:30:05.614Z,77.83
2018-04-27T07:31:05.581Z,78.25
2018-04-27T07:32:05.558Z,78.35
2018-04-27T07:33:05.535Z,77.87
2018-04-27T07:34:05.556Z,77.69
2018-04-27T07:35:05.491Z,77.69
2018-04-27T07:36:05.466Z,77.20
2018-04-27T07:37:05.447Z,77.20
2018-04-27T07:38:05.420Z,77.49
2018-04-27T07:39:05.397Z,77.01
2018-04-27T07:40:05.375Z,76.86
2018-04-27T07:41:05.352Z,76.86
2018-04-27T07:42:05.328Z,76.77
2018-04-27T07:43:05.301Z,76.29
2018-04-27T07:44:05.280Z,75.91
2018-04-27T07:45:05.257Z,75.24
2018-04-27T07:46:05.237Z,75.34
2018-04-27T07:47:05.214Z,76.29
2018-04-27T07:48:05.192Z,75.91
2018-04-27T07:49:05.166Z,75.34
2018-04-27T07:50:05.146Z,75.43
2018-04-27T07:51:05.124Z,75.28
2018-04-27T07:52:05.100Z,75.85
2018-04-27T07:53:05.077Z,75.66
2018-04-27T07:54:05.056Z,75.47
2018-04-27T07:55:05.031Z,75.37
2018-04-27T07:56:05.011Z,74.80
2018-04-27T07:57:04.984Z,74.71
2018-04-27T07:58:04.963Z,75.18
2018-04-27T07:59:07.737Z,75.76
2018-04-27T08:00:04.916Z,74.80
2018-04-27T08:01:04.898Z,75.66
2018-04-27T08:02:04.998Z,75.66
2018-04-27T08:03:04.851Z,74.90
2018-04-27T08:04:04.862Z,74.71
2018-04-27T08:05:04.863Z,74.93
2018-04-27T08:06:04.800Z,75.03
2018-04-27T08:07:04.763Z,74.93
2018-04-27T08:08:04.738Z,74.93
2018-04-27T08:09:04.721Z,74.27
2018-04-27T08:10:04.704Z,73.41
2018-04-27T08:11:04.669Z,71.88
2018-04-27T08:12:04.648Z,71.21
2018-04-27T08:13:04.631Z,71.21
2018-04-27T08:14:04.606Z,71.59
2018-04-27T08:15:04.581Z,71.02
2018-04-27T08:16:04.565Z,70.96
2018-04-27T08:17:04.535Z,70.67
2018-04-27T08:18:04.513Z,70.77
2018-04-27T08:19:04.518Z,70.67
2018-04-27T08:20:04.468Z,71.44
2018-04-27T08:21:04.450Z,71.63
2018-04-27T08:22:04.426Z,71.53
2018-04-27T08:23:04.402Z,70.96
2018-04-27T08:24:04.384Z,71.25
2018-04-27T08:25:04.359Z,71.44
2018-04-27T08:26:04.344Z,70.81
2018-04-27T08:27:04.324Z,70.71
2018-04-27T08:28:04.296Z,70.71
2018-04-27T08:29:04.271Z,70.90
2018-04-27T08:30:04.247Z,70.52
2018-04-27T08:31:04.234Z,70.23
2018-04-27T08:32:04.216Z,69.56
2018-04-27T08:33:04.204Z,68.23
2018-04-27T08:34:04.164Z,68.04
2018-04-27T08:35:04.139Z,69.27
2018-04-27T08:36:04.134Z,68.04
2018-04-27T08:37:04.092Z,68.61
2018-04-27T08:38:04.069Z,69.76
2018-04-27T08:39:04.051Z,70.17
2018-04-27T08:40:04.040Z,69.31
2018-04-27T08:41:04.009Z,69.02
2018-04-27T08:42:04.009Z,69.02
2018-04-27T08:43:03.963Z,68.84
2018-04-27T08:44:03.947Z,68.16
2018-04-27T08:45:03.958Z,68.26
2018-04-27T08:46:04.188Z,67.82
2018-04-27T08:47:03.887Z,67.53
2018-04-27T08:48:03.854Z,67.43
2018-04-27T08:49:03.835Z,67.24
2018-04-27T08:50:03.810Z,67.14
2018-04-27T08:51:03.799Z,66.47
2018-04-27T08:52:03.773Z,66.89
2018-04-27T08:53:03.757Z,65.65
2018-04-27T08:54:03.735Z,65.26
2018-04-27T08:55:03.707Z,65.36
2018-04-27T08:56:03.686Z,66.03
2018-04-27T08:57:03.664Z,66.51
2018-04-27T08:58:03.646Z,65.68
2018-04-27T08:59:03.625Z,64.92
2018-04-27T09:00:03.605Z,63.86
2018-04-27T09:01:03.584Z,63.10
2018-04-27T09:02:03.566Z,61.79
2018-04-27T09:03:03.538Z,61.11
2018-04-27T09:04:03.513Z,58.75
2018-04-27T09:05:03.505Z,58.17
2018-04-27T09:06:03.479Z,58.17
2018-04-27T09:07:03.640Z,57.82
2018-04-27T09:08:03.433Z,57.92
2018-04-27T09:09:03.413Z,56.70
2018-04-27T09:10:03.406Z,55.86
2018-04-27T09:11:03.382Z,54.71
2018-04-27T09:12:03.353Z,53.46
2018-04-27T09:13:03.334Z,53.20
2018-04-27T09:14:03.308Z,52.24
2018-04-27T09:15:03.287Z,51.59
2018-04-27T09:16:03.283Z,50.76
2018-04-27T09:17:03.251Z,50.20
2018-04-27T09:18:03.228Z,48.25
2018-04-27T09:19:03.214Z,47.89
2018-04-27T09:20:03.186Z,47.34
2018-04-27T09:21:03.166Z,45.61
2018-04-27T09:22:03.145Z,44.38
2018-04-27T09:23:03.128Z,42.93
2018-04-27T09:24:03.108Z,42.36
2018-04-27T09:25:03.098Z,41.99
2018-04-27T09:26:03.077Z,41.13
2018-04-27T09:27:03.052Z,40.74
2018-04-27T09:28:03.067Z,40.07
2018-04-27T09:29:03.056Z,39.18
2018-04-27T09:30:02.999Z,37.46
2018-04-27T09:31:02.980Z,37.08
2018-04-27T09:32:02.961Z,38.33
2018-04-27T09:33:02.950Z,39.49
2018-04-27T09:34:02.927Z,39.09
2018-04-27T09:35:02.921Z,38.91
2018-04-27T09:36:02.909Z,39.47
2018-04-27T09:37:02.893Z,39.76
2018-04-27T09:38:02.860Z,39.66
2018-04-27T09:39:02.846Z,38.31
2018-04-27T09:40:02.827Z,38.39
2018-04-27T09:41:02.895Z,38.01
2018-04-27T09:42:02.793Z,37.14
2018-04-27T09:43:02.774Z,37.43
2018-04-27T09:44:02.761Z,37.04
2018-04-27T09:45:02.745Z,36.47
2018-04-27T09:46:02.731Z,36.85
2018-04-27T09:47:02.712Z,37.14
2018-04-27T09:48:02.695Z,38.20
2018-04-27T09:49:02.678Z,39.53
2018-04-27T09:50:02.663Z,38.87
2018-04-27T09:51:02.652Z,38.78
2018-04-27T09:52:02.631Z,39.04
2018-04-27T09:53:02.614Z,39.53
2018-04-27T09:54:02.599Z,39.43
2018-04-27T09:55:02.581Z,39.14
2018-04-27T09:56:02.566Z,38.95
2018-04-27T09:57:02.553Z,39.43
2018-04-27T09:58:02.530Z,38.95
2018-04-27T09:59:02.519Z,38.26
2018-04-27T10:00:38.253Z,38.26
2018-04-27T10:01:02.481Z,38.16
2018-04-27T10:02:02.464Z,38.16
2018-04-27T10:03:02.446Z,39.12
2018-04-27T10:04:02.440Z,40.85
2018-04-27T10:05:02.414Z,40.76
2018-04-27T10:06:02.397Z,39.61
2018-04-27T10:07:02.385Z,37.47
2018-04-27T10:08:02.365Z,35.36
2018-04-27T10:09:02.344Z,34.59
2018-04-27T10:10:02.343Z,35.24
2018-04-27T10:11:02.316Z,35.82
2018-04-27T10:12:02.296Z,36.11
2018-04-27T10:13:02.276Z,36.30
2018-04-27T10:14:02.261Z,36.66
2018-04-27T10:15:02.249Z,36.95
2018-04-27T10:16:02.225Z,37.34
2018-04-27T10:17:02.215Z,38.22
2018-04-27T10:18:02.193Z,39.28
2018-04-27T10:19:02.181Z,38.59
2018-04-27T10:20:02.159Z,38.20
2018-04-27T10:21:02.175Z,37.93
2018-04-27T10:22:02.120Z,37.55
2018-04-27T10:23:02.107Z,37.93
2018-04-27T10:24:02.088Z,38.22
2018-04-27T10:25:02.067Z,37.26
2018-04-27T10:26:02.059Z,37.07
2018-04-27T10:27:02.033Z,37.07
2018-04-27T10:28:02.015Z,37.07
2018-04-27T10:29:02.001Z,36.11
2018-04-27T10:30:01.984Z,36.20
2018-04-27T10:31:01.983Z,36.40
2018-04-27T10:32:01.946Z,36.30
2018-04-27T10:33:01.928Z,36.20
2018-04-27T10:34:01.911Z,36.68
2018-04-27T10:35:01.889Z,36.88
2018-04-27T10:36:01.872Z,36.49
2018-04-27T10:37:01.854Z,36.40
2018-04-27T10:38:01.851Z,36.01
2018-04-27T10:39:01.819Z,35.91
2018-04-27T10:40:01.801Z,35.43
2018-04-27T10:41:01.781Z,34.86
2018-04-27T10:42:01.781Z,35.13
2018-04-27T10:43:01.796Z,35.34
2018-04-27T10:44:01.730Z,35.34
2018-04-27T10:45:01.709Z,35.51
2018-04-27T10:46:01.705Z,35.51
2018-04-27T10:47:01.676Z,35.13
2018-04-27T10:48:01.664Z,35.13
2018-04-27T10:49:01.640Z,35.13
2018-04-27T10:50:01.655Z,35.13
2018-04-27T10:51:01.602Z,34.94
2018-04-27T10:52:01.584Z,34.75
2018-04-27T10:53:01.565Z,34.55
2018-04-27T10:54:01.544Z,34.94
2018-04-27T10:55:01.529Z,35.32
2018-04-27T10:56:01.549Z,35.32
2018-04-27T10:57:01.493Z,34.94
2018-04-27T10:58:01.473Z,33.69
2018-04-27T10:59:01.460Z,33.40
2018-04-27T11:00:01.443Z,33.40
2018-04-27T11:02:33.614Z,32.54
2018-04-27T11:03:33.529Z,32.84
2018-04-27T11:05:29.532Z,33.61
2018-04-27T11:06:29.472Z,33.23
2018-04-27T11:08:25.421Z,33.61
2018-04-27T11:09:25.331Z,33.99
2018-04-27T11:11:18.772Z,33.99
2018-04-27T11:12:18.697Z,32.55
2018-04-27T11:14:14.663Z,32.26
2018-04-27T11:15:14.602Z,32.67
2018-04-27T11:17:10.547Z,32.67
2018-04-27T11:18:10.455Z,33.05
2018-04-27T11:20:03.911Z,31.99
2018-04-27T11:21:03.836Z,31.30
2018-04-27T11:22:59.805Z,31.90
2018-04-27T11:23:59.710Z,32.26
2018-04-27T11:25:53.165Z,32.28
2018-04-27T11:26:53.081Z,32.67
2018-04-27T11:28:49.061Z,32.18
2018-04-27T11:29:48.963Z,30.93
2018-04-27T11:31:45.013Z,30.76
2018-04-27T11:32:44.910Z,30.18
2018-04-27T11:34:40.918Z,29.51
2018-04-27T11:35:40.838Z,29.80
2018-04-27T11:37:36.794Z,29.80
2018-04-27T11:38:36.771Z,30.29
2018-04-27T11:40:30.159Z,30.00
2018-04-27T11:41:30.071Z,28.96
2018-04-27T11:43:26.036Z,28.96
2018-04-27T11:44:25.957Z,28.96
2018-04-27T11:46:21.962Z,28.77
2018-04-27T11:47:21.896Z,28.59
2018-04-27T11:49:17.883Z,28.29
2018-04-27T11:50:17.820Z,29.17
2018-04-27T11:52:13.771Z,29.15
2018-04-27T11:53:13.751Z,28.96
2018-04-27T11:55:09.652Z,28.86
2018-04-27T11:56:09.595Z,28.29
2018-04-27T11:58:05.533Z,28.59
2018-04-27T11:59:05.457Z,28.03
2018-04-27T12:01:01.476Z,28.13
2018-04-27T12:02:01.447Z,27.74
2018-04-27T12:03:54.807Z,27.56
2018-04-27T12:04:54.715Z,27.27
2018-04-27T12:06:50.687Z,27.09
2018-04-27T12:07:50.629Z,26.91
2018-04-27T12:09:46.593Z,26.53
2018-04-27T12:10:46.577Z,26.54
2018-04-27T12:12:39.967Z,26.14
2018-04-27T12:13:39.885Z,25.27
2018-04-27T12:15:36.703Z,25.48
2018-04-27T12:16:36.647Z,25.76
2018-04-27T12:18:30.118Z,26.15
2018-04-27T12:19:30.037Z,26.54
2018-04-27T12:21:23.505Z,25.55
2018-04-27T12:22:23.440Z,25.84
2018-04-27T12:24:19.409Z,27.08
2018-04-27T12:25:19.305Z,26.29
2018-04-27T12:27:15.352Z,27.45
2018-04-27T12:28:15.205Z,27.64
2018-04-27T12:30:11.165Z,26.89
2018-04-27T12:31:11.102Z,25.92
2018-04-27T12:33:07.108Z,26.11
2018-04-27T12:34:07.022Z,26.89
2018-04-27T12:36:00.741Z,26.32
2018-04-27T12:37:00.426Z,26.12
2018-04-27T12:38:56.412Z,26.79
2018-04-27T12:39:56.341Z,27.83
2018-04-27T12:41:52.289Z,28.31
2018-04-27T12:42:52.201Z,28.11
2018-04-27T12:44:45.652Z,28.29
2018-04-27T12:45:45.571Z,28.38
2018-04-27T12:47:41.521Z,29.17
2018-04-27T12:48:41.424Z,29.07
2018-04-27T12:50:37.398Z,28.69
2018-04-27T12:51:37.306Z,28.40
2018-04-27T12:53:33.269Z,28.31
2018-04-27T12:54:33.186Z,27.72
2018-04-27T12:56:26.661Z,27.45
2018-04-27T12:57:26.583Z,26.86
2018-04-27T12:59:20.030Z,26.76
2018-04-27T13:00:19.954Z,26.95
2018-04-27T13:02:15.932Z,27.71
2018-04-27T13:03:15.849Z,27.61
2018-04-27T13:05:11.796Z,28.66
2018-04-27T13:06:11.713Z,29.52
2018-04-27T13:08:08.567Z,28.47
2018-04-27T13:09:08.458Z,28.16
2018-04-27T13:11:05.251Z,29.22
2018-04-27T13:12:05.163Z,29.13
2018-04-27T13:14:01.150Z,29.22
2018-04-27T13:15:01.047Z,29.03
2018-04-27T13:16:57.012Z,29.32
2018-04-27T13:17:56.929Z,29.51
2018-04-27T13:19:52.892Z,29.41
2018-04-27T13:20:52.804Z,29.22
2018-04-27T13:22:48.769Z,29.61
2018-04-27T13:23:48.684Z,29.41
2018-04-27T13:25:44.633Z,29.03
2018-04-27T13:26:44.549Z,29.69
2018-04-27T13:28:38.085Z,29.88
2018-04-27T13:29:37.979Z,30.47
2018-04-27T13:31:33.932Z,28.84
2018-04-27T13:32:33.847Z,29.69
2018-04-27T13:34:27.407Z,29.97
2018-04-27T13:35:27.277Z,29.79
2018-04-27T13:37:23.292Z,30.17
2018-04-27T13:38:23.235Z,29.30
2018-04-27T13:40:16.680Z,30.17
2018-04-27T13:41:16.639Z,29.79
2018-04-27T13:43:10.056Z,30.17
2018-04-27T13:44:09.951Z,30.36